UAE2YA OMDB-LHBP
Flight info
| Callsign | UAE2YA |
|---|---|
| Flight time | N/A |
| Altitude | 38000 |
| Route | OMDB/30L ANVIX L223 TARDI N629 BOTAM Y855 LAKLU Q204 NALKI G652 TOKRA DCT ALROK DCT BOSOB/N0489F400 DCT ITRUX Y511 PMA Z712 WEJ L677 GESON Q777 RASDA DCT OTHON DCT VAXOS DCT BANRO UG80 IMR UN127 RIKSO DCT ATFIR DCT ERDOM N133 LOMOS DCT PADGU DCT DEGET DCT KEZAL LHBP/31R |
| Aircraft | A359/H-SDE2E3GHIJ3J4J5LM1ORWXY/LB1D1 |
Departure
| Time | 2026-04-20 14:47 |
|---|---|
| Airport | Dubai International Airport (OMDB) |
Arrival
| Time | N/A |
|---|---|
| Airport | Budapest Liszt Ferenc International Airport (LHBP) |
| Time | Latitude | Longitude | Altitude | Speed | Heading |
|---|---|---|---|---|---|
| 2026-04-20 14:02 | 25.24613 | 55.36360 | 15 ft | 0 kts | 31° |
| 2026-04-20 14:28 | 25.24600 | 55.36351 | 16 ft | 3 kts | 31° |
| 2026-04-20 14:28 | 25.24582 | 55.36339 | 17 ft | 3 kts | 31° |
| 2026-04-20 14:28 | 25.24564 | 55.36328 | 19 ft | 3 kts | 31° |
| 2026-04-20 14:29 | 25.24546 | 55.36316 | 19 ft | 3 kts | 29° |
| 2026-04-20 14:29 | 25.24529 | 55.36308 | 19 ft | 3 kts | 7° |
| 2026-04-20 14:29 | 25.24509 | 55.36307 | 18 ft | 3 kts | 358° |
| 2026-04-20 14:29 | 25.24490 | 55.36310 | 19 ft | 3 kts | 341° |
| 2026-04-20 14:30 | 25.24474 | 55.36319 | 19 ft | 3 kts | 320° |
| 2026-04-20 14:30 | 25.24460 | 55.36334 | 17 ft | 3 kts | 311° |
| 2026-04-20 14:30 | 25.24451 | 55.36346 | 18 ft | 0 kts | 304° |
| 2026-04-20 14:34 | 25.24452 | 55.36345 | 18 ft | 1 kts | 304° |
| 2026-04-20 14:34 | 25.24460 | 55.36331 | 16 ft | 5 kts | 302° |
| 2026-04-20 14:34 | 25.24488 | 55.36281 | 19 ft | 10 kts | 301° |
| 2026-04-20 14:34 | 25.24532 | 55.36200 | 15 ft | 14 kts | 300° |
| 2026-04-20 14:35 | 25.24585 | 55.36101 | 15 ft | 16 kts | 302° |
| 2026-04-20 14:35 | 25.24649 | 55.35990 | 15 ft | 18 kts | 302° |
| 2026-04-20 14:35 | 25.24717 | 55.35865 | 15 ft | 20 kts | 301° |
| 2026-04-20 14:35 | 25.24791 | 55.35731 | 15 ft | 21 kts | 302° |
| 2026-04-20 14:36 | 25.24876 | 55.35597 | 15 ft | 22 kts | 304° |
| 2026-04-20 14:36 | 25.24958 | 55.35454 | 15 ft | 22 kts | 302° |
| 2026-04-20 14:36 | 25.25041 | 55.35307 | 15 ft | 23 kts | 301° |
| 2026-04-20 14:36 | 25.25133 | 55.35161 | 15 ft | 23 kts | 307° |
| 2026-04-20 14:37 | 25.25219 | 55.35010 | 15 ft | 22 kts | 301° |
| 2026-04-20 14:37 | 25.25294 | 55.34879 | 16 ft | 20 kts | 311° |
| 2026-04-20 14:37 | 25.25415 | 55.34814 | 16 ft | 19 kts | 354° |
| 2026-04-20 14:37 | 25.25534 | 55.34857 | 16 ft | 19 kts | 31° |
| 2026-04-20 14:38 | 25.25650 | 55.34934 | 16 ft | 20 kts | 30° |
| 2026-04-20 14:38 | 25.25771 | 55.35014 | 17 ft | 21 kts | 31° |
| 2026-04-20 14:38 | 25.25898 | 55.35100 | 16 ft | 22 kts | 31° |
| 2026-04-20 14:38 | 25.26028 | 55.35186 | 16 ft | 19 kts | 31° |
| 2026-04-20 14:39 | 25.26118 | 55.35280 | 16 ft | 17 kts | 85° |
| 2026-04-20 14:39 | 25.26064 | 55.35394 | 16 ft | 17 kts | 121° |
| 2026-04-20 14:39 | 25.26002 | 55.35506 | 15 ft | 18 kts | 121° |
| 2026-04-20 14:39 | 25.25942 | 55.35617 | 15 ft | 17 kts | 120° |
| 2026-04-20 14:40 | 25.25877 | 55.35732 | 15 ft | 18 kts | 122° |
| 2026-04-20 14:40 | 25.25808 | 55.35855 | 15 ft | 19 kts | 122° |
| 2026-04-20 14:40 | 25.25735 | 55.35986 | 15 ft | 21 kts | 122° |
| 2026-04-20 14:40 | 25.25658 | 55.36125 | 15 ft | 22 kts | 121° |
| 2026-04-20 14:41 | 25.25578 | 55.36271 | 15 ft | 23 kts | 121° |
| 2026-04-20 14:41 | 25.25499 | 55.36413 | 15 ft | 21 kts | 121° |
| 2026-04-20 14:41 | 25.25421 | 55.36554 | 15 ft | 19 kts | 121° |
| 2026-04-20 14:41 | 25.25349 | 55.36683 | 15 ft | 20 kts | 121° |
| 2026-04-20 14:42 | 25.25277 | 55.36812 | 15 ft | 19 kts | 121° |
| 2026-04-20 14:42 | 25.25206 | 55.36939 | 15 ft | 20 kts | 121° |
| 2026-04-20 14:42 | 25.25132 | 55.37073 | 16 ft | 21 kts | 121° |
| 2026-04-20 14:42 | 25.25055 | 55.37214 | 16 ft | 22 kts | 121° |
| 2026-04-20 14:43 | 25.24976 | 55.37361 | 16 ft | 23 kts | 121° |
| 2026-04-20 14:43 | 25.24899 | 55.37498 | 16 ft | 19 kts | 122° |
| 2026-04-20 14:43 | 25.24840 | 55.37604 | 16 ft | 16 kts | 121° |
| 2026-04-20 14:43 | 25.24780 | 55.37715 | 17 ft | 17 kts | 121° |
| 2026-04-20 14:44 | 25.24716 | 55.37831 | 17 ft | 18 kts | 121° |
| 2026-04-20 14:44 | 25.24668 | 55.37930 | 17 ft | 10 kts | 95° |
| 2026-04-20 14:44 | 25.24713 | 55.37980 | 19 ft | 10 kts | 34° |
| 2026-04-20 14:44 | 25.24783 | 55.38025 | 17 ft | 12 kts | 16° |
| 2026-04-20 14:45 | 25.24837 | 55.37979 | 17 ft | 5 kts | 301° |
| 2026-04-20 14:45 | 25.24837 | 55.37978 | 17 ft | 0 kts | 301° |
| 2026-04-20 14:46 | 25.24882 | 55.37894 | 17 ft | 37 kts | 301° |
| 2026-04-20 14:46 | 25.25135 | 55.37435 | 16 ft | 100 kts | 301° |
| 2026-04-20 14:46 | 25.25605 | 55.36588 | 15 ft | 154 kts | 302° |
| 2026-04-20 14:47 | 25.26218 | 55.35491 | 365 ft | 172 kts | 301° |
| 2026-04-20 14:47 | 25.26841 | 55.34377 | 972 ft | 174 kts | 301° |
| 2026-04-20 14:47 | 25.27478 | 55.33238 | 1633 ft | 175 kts | 302° |
| 2026-04-20 14:48 | 25.28687 | 55.31017 | 2612 ft | 166 kts | 298° |
| 2026-04-20 14:48 | 25.29135 | 55.29830 | 2927 ft | 171 kts | 285° |
| 2026-04-20 14:48 | 25.29143 | 55.28485 | 3145 ft | 183 kts | 257° |
| 2026-04-20 14:48 | 25.28593 | 55.27177 | 3413 ft | 192 kts | 244° |
| 2026-04-20 14:49 | 25.27964 | 55.25819 | 3643 ft | 206 kts | 246° |
| 2026-04-20 14:49 | 25.27339 | 55.24314 | 3883 ft | 219 kts | 248° |
| 2026-04-20 14:49 | 25.26697 | 55.22771 | 4249 ft | 227 kts | 246° |
| 2026-04-20 14:49 | 25.25989 | 55.21199 | 4681 ft | 230 kts | 244° |
| 2026-04-20 14:50 | 25.25185 | 55.19662 | 5152 ft | 233 kts | 240° |
| 2026-04-20 14:50 | 25.24318 | 55.18138 | 5623 ft | 236 kts | 240° |
| 2026-04-20 14:50 | 25.23225 | 55.16772 | 6018 ft | 244 kts | 214° |
| 2026-04-20 14:50 | 25.21576 | 55.16287 | 6443 ft | 248 kts | 176° |
| 2026-04-20 14:51 | 25.19899 | 55.16608 | 6909 ft | 249 kts | 163° |
| 2026-04-20 14:51 | 25.18381 | 55.17523 | 7295 ft | 254 kts | 135° |
| 2026-04-20 14:51 | 25.17403 | 55.19142 | 7656 ft | 257 kts | 114° |
| 2026-04-20 14:51 | 25.16611 | 55.20980 | 8000 ft | 267 kts | 114° |
| 2026-04-20 14:52 | 25.15760 | 55.22822 | 8287 ft | 279 kts | 116° |
| 2026-04-20 14:52 | 25.14838 | 55.24745 | 8642 ft | 287 kts | 117° |
| 2026-04-20 14:52 | 25.13893 | 55.26708 | 9085 ft | 292 kts | 117° |
| 2026-04-20 14:52 | 25.12932 | 55.28701 | 9591 ft | 296 kts | 117° |
| 2026-04-20 14:53 | 25.11949 | 55.30742 | 9874 ft | 308 kts | 117° |
| 2026-04-20 14:53 | 25.10930 | 55.32879 | 10103 ft | 320 kts | 115° |
| 2026-04-20 14:53 | 25.09959 | 55.35134 | 10363 ft | 331 kts | 113° |
| 2026-04-20 14:53 | 25.08992 | 55.37483 | 10618 ft | 342 kts | 113° |
| 2026-04-20 14:54 | 25.07994 | 55.39914 | 10837 ft | 352 kts | 113° |
| 2026-04-20 14:54 | 25.06988 | 55.42410 | 11059 ft | 362 kts | 112° |
| 2026-04-20 14:54 | 25.05987 | 55.44998 | 11274 ft | 372 kts | 111° |
| 2026-04-20 14:54 | 25.04962 | 55.47662 | 11480 ft | 381 kts | 112° |
| 2026-04-20 14:55 | 25.03717 | 55.50269 | 11776 ft | 387 kts | 120° |
| 2026-04-20 14:55 | 25.02295 | 55.52813 | 12078 ft | 392 kts | 121° |
| 2026-04-20 14:55 | 25.00827 | 55.55363 | 12399 ft | 397 kts | 121° |
| 2026-04-20 14:55 | 24.99333 | 55.57930 | 12734 ft | 400 kts | 122° |
| 2026-04-20 14:56 | 24.97814 | 55.60524 | 13076 ft | 403 kts | 122° |
| 2026-04-20 14:56 | 24.96285 | 55.63130 | 13411 ft | 406 kts | 122° |
| 2026-04-20 14:56 | 24.94741 | 55.65756 | 13715 ft | 410 kts | 122° |
| 2026-04-20 14:56 | 24.93183 | 55.68402 | 14035 ft | 412 kts | 122° |
| 2026-04-20 14:57 | 24.91620 | 55.71054 | 14380 ft | 413 kts | 122° |
| 2026-04-20 14:57 | 24.90052 | 55.73713 | 14726 ft | 415 kts | 122° |
| 2026-04-20 14:57 | 24.88477 | 55.76382 | 15088 ft | 416 kts | 122° |
| 2026-04-20 14:57 | 24.86898 | 55.79056 | 15448 ft | 417 kts | 122° |